createdAt,value
2018-09-18T00:00:56.089Z,18.30
2018-09-18T00:03:25.326Z,18.30
2018-09-18T00:05:54.573Z,18.20
2018-09-18T00:08:23.314Z,18.10
2018-09-18T00:10:52.103Z,18.10
2018-09-18T00:13:21.507Z,18.10
2018-09-18T00:15:50.769Z,18.10
2018-09-18T00:18:19.494Z,18.00
2018-09-18T00:20:48.592Z,18.00
2018-09-18T00:23:17.176Z,17.90
2018-09-18T00:25:46.557Z,17.90
2018-09-18T00:28:15.456Z,17.90
2018-09-18T00:30:44.057Z,17.90
2018-09-18T00:33:12.925Z,17.90
2018-09-18T00:35:41.771Z,17.90
2018-09-18T00:38:10.936Z,17.90
2018-09-18T00:40:39.850Z,17.90
2018-09-18T00:43:08.615Z,17.80
2018-09-18T00:45:37.289Z,17.70
2018-09-18T00:48:05.967Z,17.80
2018-09-18T00:50:34.583Z,17.80
2018-09-18T00:53:03.543Z,17.80
2018-09-18T00:55:32.394Z,17.80
2018-09-18T00:58:01.684Z,17.70
2018-09-18T01:00:30.318Z,17.70
2018-09-18T01:02:58.883Z,17.60
2018-09-18T01:05:28.081Z,17.70
2018-09-18T01:07:56.768Z,17.60
2018-09-18T01:10:26.006Z,17.60
2018-09-18T01:12:54.813Z,17.60
2018-09-18T01:15:23.795Z,17.50
2018-09-18T01:17:52.654Z,17.50
2018-09-18T01:20:21.391Z,17.60
2018-09-18T01:22:50.104Z,17.60
2018-09-18T01:25:18.760Z,17.60
2018-09-18T01:27:47.366Z,17.60
2018-09-18T01:30:16.307Z,17.60
2018-09-18T01:32:45.407Z,17.60
2018-09-18T01:35:13.991Z,17.60
2018-09-18T01:37:42.966Z,17.50
2018-09-18T01:40:11.652Z,17.50
2018-09-18T01:42:40.442Z,17.50
2018-09-18T01:45:09.342Z,17.50
2018-09-18T01:47:38.081Z,17.50
2018-09-18T01:50:06.811Z,17.50
2018-09-18T01:52:35.347Z,17.60
2018-09-18T01:55:03.983Z,17.50
2018-09-18T01:57:32.628Z,17.40
2018-09-18T02:00:01.249Z,17.40
2018-09-18T02:02:30.092Z,17.40
2018-09-18T02:04:58.644Z,17.30
2018-09-18T02:07:27.183Z,17.40
2018-09-18T02:09:55.855Z,17.40
2018-09-18T02:12:24.426Z,17.40
2018-09-18T02:14:53.230Z,17.30
2018-09-18T02:17:21.816Z,17.30
2018-09-18T02:19:50.455Z,17.30
2018-09-18T02:22:19.028Z,17.40
2018-09-18T02:24:47.624Z,17.40
2018-09-18T02:27:16.408Z,17.40
2018-09-18T02:29:45.105Z,17.30
2018-09-18T02:32:14.016Z,17.30
2018-09-18T02:34:42.723Z,17.30
2018-09-18T02:37:12.469Z,17.30
2018-09-18T02:39:41.525Z,17.30
2018-09-18T02:42:10.872Z,17.30
2018-09-18T02:44:39.996Z,17.20
2018-09-18T02:47:08.763Z,17.30
2018-09-18T02:49:37.613Z,17.20
2018-09-18T02:52:06.739Z,17.20
2018-09-18T02:54:35.313Z,17.20
2018-09-18T02:57:03.955Z,17.30
2018-09-18T02:59:32.459Z,17.30
2018-09-18T03:02:01.043Z,17.20
2018-09-18T03:04:29.588Z,17.20
2018-09-18T03:06:58.090Z,17.10
2018-09-18T03:09:26.655Z,16.20
2018-09-18T03:11:55.386Z,17.10
2018-09-18T03:14:24.016Z,17.10
2018-09-18T03:16:52.612Z,17.10
2018-09-18T03:19:21.172Z,17.10
2018-09-18T03:21:49.739Z,17.10
2018-09-18T03:24:18.592Z,17.20
2018-09-18T03:26:47.156Z,17.20
2018-09-18T03:29:15.671Z,17.10
2018-09-18T03:31:44.418Z,17.10
2018-09-18T03:34:13.087Z,17.00
2018-09-18T03:36:42.154Z,17.10
2018-09-18T03:39:10.709Z,17.00
2018-09-18T03:41:39.193Z,17.00
2018-09-18T03:44:07.857Z,17.10
2018-09-18T03:46:36.708Z,17.10
2018-09-18T03:49:05.432Z,17.00
2018-09-18T03:51:33.981Z,17.00
2018-09-18T03:54:02.631Z,16.90
2018-09-18T03:56:31.215Z,16.80
2018-09-18T03:58:59.984Z,16.80
2018-09-18T04:01:28.733Z,16.80
2018-09-18T04:03:57.211Z,16.80
2018-09-18T04:06:25.845Z,16.90
2018-09-18T04:08:54.337Z,16.90
2018-09-18T04:11:23.205Z,16.90
2018-09-18T04:13:52.195Z,16.80
2018-09-18T04:16:21.427Z,16.80
2018-09-18T04:18:49.981Z,16.80
2018-09-18T04:21:18.490Z,16.80
2018-09-18T04:23:47.177Z,16.90
2018-09-18T04:26:15.868Z,16.80
2018-09-18T04:28:44.518Z,16.70
2018-09-18T04:31:13.100Z,16.70
2018-09-18T04:33:41.608Z,16.70
2018-09-18T04:36:11.500Z,16.70
2018-09-18T04:38:40.547Z,16.70
2018-09-18T04:41:09.240Z,16.70
2018-09-18T04:43:38.483Z,16.70
2018-09-18T04:46:07.327Z,16.70
2018-09-18T04:48:36.662Z,16.70
2018-09-18T04:51:05.247Z,16.60
2018-09-18T04:53:34.466Z,16.60
2018-09-18T04:56:03.496Z,16.60
2018-09-18T04:58:32.289Z,16.60
2018-09-18T05:01:01.381Z,16.60
2018-09-18T05:03:30.598Z,16.60
2018-09-18T05:05:59.328Z,16.60
2018-09-18T05:08:28.019Z,16.60
2018-09-18T05:10:56.584Z,16.60
2018-09-18T05:13:25.753Z,16.60
2018-09-18T05:15:55.074Z,16.60
2018-09-18T05:18:24.110Z,16.60
2018-09-18T05:20:52.823Z,16.50
2018-09-18T05:23:21.407Z,16.40
2018-09-18T05:25:50.343Z,16.50
2018-09-18T05:28:19.533Z,16.50
2018-09-18T05:30:48.791Z,16.50
2018-09-18T05:33:17.379Z,16.50
2018-09-18T05:35:46.470Z,16.50
2018-09-18T05:38:15.079Z,16.50
2018-09-18T05:40:43.862Z,16.50
2018-09-18T05:43:14.245Z,16.50
2018-09-18T05:45:43.241Z,16.50
2018-09-18T05:48:14.620Z,16.60
2018-09-18T05:50:43.819Z,16.60
2018-09-18T05:53:13.005Z,16.70
2018-09-18T05:55:41.593Z,16.70
2018-09-18T05:58:10.172Z,16.70
2018-09-18T06:00:39.331Z,16.70
2018-09-18T06:03:08.259Z,16.70
2018-09-18T06:05:37.152Z,16.80
2018-09-18T06:08:05.981Z,16.70
2018-09-18T06:10:34.617Z,16.80
2018-09-18T06:13:03.451Z,16.80
2018-09-18T06:15:33.063Z,16.80
2018-09-18T06:18:02.119Z,16.80
2018-09-18T06:20:31.049Z,16.90
2018-09-18T06:22:59.834Z,16.80
2018-09-18T06:25:29.342Z,16.80
2018-09-18T06:27:58.935Z,16.90
2018-09-18T06:30:27.788Z,16.90
2018-09-18T06:32:58.237Z,17.00
2018-09-18T06:35:27.813Z,17.10
2018-09-18T06:37:56.994Z,17.10
2018-09-18T06:40:25.832Z,17.20
2018-09-18T06:42:54.821Z,17.30
2018-09-18T06:45:23.529Z,17.30
2018-09-18T06:47:52.402Z,17.40
2018-09-18T06:50:21.047Z,17.50
2018-09-18T06:52:49.876Z,17.50
2018-09-18T06:55:20.353Z,17.60
2018-09-18T06:57:49.858Z,17.70
2018-09-18T07:00:19.035Z,17.80
2018-09-18T07:02:50.206Z,18.00
2018-09-18T07:05:20.546Z,18.10
2018-09-18T07:07:49.995Z,18.20
2018-09-18T07:10:24.103Z,18.40
2018-09-18T07:12:53.310Z,18.50
2018-09-18T07:15:21.977Z,18.50
2018-09-18T07:17:50.541Z,18.50
2018-09-18T07:20:35.941Z,18.60
2018-09-18T07:23:05.049Z,18.80
2018-09-18T07:25:35.801Z,19.00
2018-09-18T07:28:05.242Z,19.20
2018-09-18T07:30:34.740Z,19.50
2018-09-18T07:33:03.934Z,19.70
2018-09-18T07:35:33.010Z,19.90
2018-09-18T07:38:02.452Z,20.10
2018-09-18T07:40:31.927Z,20.30
2018-09-18T07:43:02.429Z,20.40
2018-09-18T07:45:31.765Z,20.60
2018-09-18T07:48:02.658Z,20.70
2018-09-18T07:50:33.031Z,20.90
2018-09-18T07:53:01.585Z,21.00
2018-09-18T07:55:32.705Z,21.20
2018-09-18T07:58:07.659Z,21.20
2018-09-18T08:00:37.784Z,21.30
2018-09-18T08:03:06.923Z,21.40
2018-09-18T08:05:36.618Z,21.50
2018-09-18T08:08:05.764Z,21.50
2018-09-18T08:10:36.711Z,21.60
2018-09-18T08:13:05.364Z,21.70
2018-09-18T08:15:35.159Z,21.80
2018-09-18T08:18:03.848Z,21.90
2018-09-18T08:20:34.444Z,21.90
2018-09-18T08:23:03.449Z,22.00
2018-09-18T08:25:32.328Z,22.00
2018-09-18T08:28:03.306Z,22.10
2018-09-18T08:30:33.077Z,22.20
2018-09-18T08:33:02.077Z,22.20
2018-09-18T08:35:31.723Z,22.30
2018-09-18T08:38:02.044Z,22.30
2018-09-18T08:40:31.412Z,22.30
2018-09-18T08:43:00.868Z,22.40
2018-09-18T08:45:29.858Z,22.40
2018-09-18T08:47:58.833Z,22.40
2018-09-18T08:50:29.606Z,22.50
2018-09-18T08:53:02.244Z,22.50
2018-09-18T08:55:30.848Z,22.60
2018-09-18T08:57:59.775Z,22.50
2018-09-18T09:00:29.793Z,22.60
2018-09-18T09:02:58.445Z,22.60
2018-09-18T09:05:27.691Z,22.60
2018-09-18T09:07:56.648Z,22.60
2018-09-18T09:10:25.643Z,22.60
2018-09-18T09:12:54.374Z,22.70
2018-09-18T09:15:23.016Z,22.70
2018-09-18T09:17:51.594Z,22.70
2018-09-18T09:20:20.789Z,22.70
2018-09-18T09:22:50.056Z,22.70
2018-09-18T09:25:20.504Z,22.80
2018-09-18T09:27:49.805Z,22.80
2018-09-18T09:30:19.132Z,22.80
2018-09-18T09:32:47.723Z,22.80
2018-09-18T09:35:16.766Z,22.80
2018-09-18T09:37:45.756Z,22.90
2018-09-18T09:40:14.546Z,23.00
2018-09-18T09:42:43.173Z,23.00
2018-09-18T09:45:11.966Z,23.10
2018-09-18T09:47:40.696Z,23.10
2018-09-18T09:50:09.290Z,23.10
2018-09-18T09:52:37.879Z,23.20
2018-09-18T09:55:06.730Z,23.20
2018-09-18T09:57:35.302Z,23.20
2018-09-18T10:00:04.979Z,23.20
2018-09-18T10:02:39.583Z,23.20
2018-09-18T10:05:08.484Z,23.20
2018-09-18T10:07:38.355Z,23.20
2018-09-18T10:10:07.267Z,23.20
2018-09-18T10:12:35.833Z,23.20
2018-09-18T10:15:04.901Z,23.30
2018-09-18T10:17:33.997Z,23.40
2018-09-18T10:20:03.096Z,23.50
2018-09-18T10:22:32.155Z,23.60
2018-09-18T10:25:01.074Z,23.60
2018-09-18T10:27:30.592Z,23.50
2018-09-18T10:30:02.652Z,23.50
2018-09-18T10:32:31.863Z,23.50
2018-09-18T10:35:00.914Z,23.50
2018-09-18T10:37:30.716Z,23.50
2018-09-18T10:40:00.288Z,23.50
2018-09-18T10:42:30.385Z,23.50
2018-09-18T10:45:00.194Z,23.50
2018-09-18T10:47:31.669Z,23.60
2018-09-18T10:50:01.433Z,23.80
2018-09-18T10:52:31.944Z,23.90
2018-09-18T10:55:01.874Z,24.00
2018-09-18T10:57:32.262Z,24.00
2018-09-18T11:00:01.656Z,23.90
2018-09-18T11:02:30.916Z,23.90
2018-09-18T11:05:00.852Z,23.90
2018-09-18T11:07:30.317Z,23.90
2018-09-18T11:09:59.106Z,24.00
2018-09-18T11:12:30.394Z,24.00
2018-09-18T11:14:59.818Z,24.10
2018-09-18T11:17:28.354Z,24.20
2018-09-18T11:19:58.152Z,24.20
2018-09-18T11:22:27.228Z,24.20
2018-09-18T11:24:58.832Z,24.30
2018-09-18T11:27:28.075Z,24.30
2018-09-18T11:29:57.470Z,24.30
2018-09-18T11:32:26.541Z,24.30
2018-09-18T11:34:55.236Z,24.30
2018-09-18T11:37:25.568Z,24.30
2018-09-18T11:40:00.154Z,24.30
2018-09-18T11:42:28.941Z,24.30
2018-09-18T11:44:58.367Z,24.20
2018-09-18T11:47:27.261Z,24.20
2018-09-18T11:49:57.415Z,24.20
2018-09-18T11:52:26.286Z,24.30
2018-09-18T11:54:54.886Z,24.40
2018-09-18T11:57:24.635Z,24.50
2018-09-18T11:59:55.000Z,24.50
2018-09-18T12:02:23.493Z,24.50
2018-09-18T12:04:52.364Z,24.50
2018-09-18T12:07:21.214Z,24.60
2018-09-18T12:09:50.053Z,24.70
2018-09-18T12:12:19.726Z,24.80
2018-09-18T12:14:48.481Z,24.80
2018-09-18T12:17:17.342Z,24.90
2018-09-18T12:19:46.132Z,24.90
2018-09-18T12:22:14.918Z,25.00
2018-09-18T12:24:43.537Z,25.00
2018-09-18T12:27:12.381Z,25.10
2018-09-18T12:29:41.525Z,25.10
2018-09-18T12:32:11.152Z,25.00
2018-09-18T12:34:39.750Z,25.00
2018-09-18T12:37:08.784Z,25.10
2018-09-18T12:39:37.474Z,25.20
2018-09-18T12:42:07.117Z,25.30
2018-09-18T12:44:35.486Z,25.30
2018-09-18T12:47:04.902Z,25.40
2018-09-18T12:49:34.083Z,25.40
2018-09-18T12:52:03.079Z,25.40
2018-09-18T12:54:32.257Z,25.40
2018-09-18T12:57:01.621Z,25.40
2018-09-18T12:59:30.064Z,25.60
2018-09-18T13:01:58.649Z,25.70
2018-09-18T13:04:27.190Z,25.90
2018-09-18T13:06:56.388Z,26.00
2018-09-18T13:09:24.862Z,26.10
2018-09-18T13:11:55.223Z,26.10
2018-09-18T13:14:24.054Z,26.10
2018-09-18T13:16:53.290Z,26.00
2018-09-18T13:19:21.806Z,25.90
2018-09-18T13:21:52.148Z,26.00
2018-09-18T13:24:20.954Z,26.00
2018-09-18T13:26:50.169Z,25.90
2018-09-18T13:29:19.325Z,25.90
2018-09-18T13:31:48.059Z,25.90
2018-09-18T13:34:16.696Z,25.80
2018-09-18T13:36:45.482Z,25.60
2018-09-18T13:39:14.338Z,25.50
2018-09-18T13:41:43.079Z,25.40
2018-09-18T13:44:11.802Z,25.30
2018-09-18T13:46:40.369Z,25.30
2018-09-18T13:49:09.537Z,25.30
2018-09-18T13:51:38.612Z,25.20
2018-09-18T13:54:07.471Z,25.10
2018-09-18T13:56:36.344Z,25.10
2018-09-18T13:59:05.347Z,25.10
2018-09-18T14:01:34.305Z,25.10
2018-09-18T14:04:02.885Z,25.10
2018-09-18T14:06:31.807Z,25.10
2018-09-18T14:09:00.591Z,25.10
2018-09-18T14:11:29.764Z,25.00
2018-09-18T14:13:58.508Z,24.90
2018-09-18T14:16:27.171Z,24.80
2018-09-18T14:18:55.853Z,24.80
2018-09-18T14:21:25.291Z,24.80
2018-09-18T14:23:54.441Z,24.80
2018-09-18T14:26:23.920Z,24.80
2018-09-18T14:28:52.356Z,24.90
2018-09-18T14:31:21.251Z,25.00
2018-09-18T14:33:49.793Z,25.10
2018-09-18T14:36:18.603Z,25.20
2018-09-18T14:38:48.007Z,25.40
2018-09-18T14:41:16.704Z,25.40
2018-09-18T14:43:45.327Z,25.40
2018-09-18T14:46:14.060Z,25.40
2018-09-18T14:48:42.824Z,25.40
2018-09-18T14:51:11.921Z,25.40
2018-09-18T14:53:41.178Z,25.40
2018-09-18T14:56:10.686Z,25.30
2018-09-18T14:58:39.342Z,25.10
2018-09-18T15:01:07.949Z,25.10
2018-09-18T15:03:36.849Z,25.10
2018-09-18T15:06:05.351Z,25.10
2018-09-18T15:08:35.358Z,25.10
2018-09-18T15:11:04.517Z,25.20
2018-09-18T15:13:33.402Z,25.10
2018-09-18T15:16:02.368Z,25.10
2018-09-18T15:18:30.985Z,25.10
2018-09-18T15:20:59.587Z,25.00
2018-09-18T15:23:29.632Z,25.00
2018-09-18T15:25:58.922Z,25.00
2018-09-18T15:28:27.510Z,25.00
2018-09-18T15:30:56.778Z,25.00
2018-09-18T15:33:30.967Z,25.10
2018-09-18T15:35:59.442Z,25.20
2018-09-18T15:38:28.089Z,25.30
2018-09-18T15:40:56.625Z,25.30
2018-09-18T15:43:25.470Z,25.20
2018-09-18T15:45:54.027Z,25.20
2018-09-18T15:48:24.960Z,25.20
2018-09-18T15:50:54.104Z,25.10
2018-09-18T15:53:23.449Z,25.10
2018-09-18T15:55:52.590Z,25.00
2018-09-18T15:58:21.434Z,24.90
2018-09-18T16:00:51.959Z,24.90
2018-09-18T16:03:21.816Z,24.80
2018-09-18T16:05:50.866Z,24.80
2018-09-18T16:08:19.925Z,24.70
2018-09-18T16:10:49.843Z,24.80
2018-09-18T16:13:20.001Z,24.70
2018-09-18T16:15:48.820Z,24.70
2018-09-18T16:18:18.777Z,24.60
2018-09-18T16:20:47.300Z,24.60
2018-09-18T16:23:16.133Z,24.60
2018-09-18T16:25:44.918Z,24.50
2018-09-18T16:28:13.553Z,24.50
2018-09-18T16:30:42.407Z,24.50
2018-09-18T16:33:11.278Z,24.50
2018-09-18T16:35:40.496Z,24.40
2018-09-18T16:38:09.434Z,24.30
2018-09-18T16:40:39.114Z,24.30
2018-09-18T16:43:08.165Z,24.30
2018-09-18T16:45:36.654Z,24.30
2018-09-18T16:48:05.173Z,24.20
2018-09-18T16:50:33.962Z,24.20
2018-09-18T16:53:02.715Z,24.10
2018-09-18T16:55:31.389Z,24.10
2018-09-18T16:57:59.954Z,24.10
2018-09-18T17:00:28.769Z,24.00
2018-09-18T17:02:57.573Z,24.00
2018-09-18T17:05:26.332Z,23.90
2018-09-18T17:07:55.709Z,23.90
2018-09-18T17:10:24.504Z,23.90
2018-09-18T17:12:52.981Z,23.90
2018-09-18T17:15:21.669Z,24.00
2018-09-18T17:17:50.322Z,24.00
2018-09-18T17:20:19.748Z,24.00
2018-09-18T17:22:49.018Z,24.00
2018-09-18T17:25:17.851Z,24.20
2018-09-18T17:27:47.573Z,24.50
2018-09-18T17:30:16.457Z,24.70
2018-09-18T17:32:45.334Z,24.90
2018-09-18T17:35:14.236Z,25.10
2018-09-18T17:37:43.558Z,25.10
2018-09-18T17:40:12.690Z,25.10
2018-09-18T17:42:41.265Z,25.10
2018-09-18T17:45:10.159Z,25.10
2018-09-18T17:47:38.863Z,25.10
2018-09-18T17:50:07.393Z,24.90
2018-09-18T17:52:36.087Z,24.90
2018-09-18T17:55:04.612Z,24.50
2018-09-18T17:57:33.344Z,24.30
2018-09-18T18:00:01.961Z,24.00
2018-09-18T18:02:30.741Z,23.70
2018-09-18T18:04:59.297Z,23.40
2018-09-18T18:07:27.973Z,23.30
2018-09-18T18:09:56.518Z,23.20
2018-09-18T18:12:25.082Z,23.10
2018-09-18T18:14:54.539Z,23.10
2018-09-18T18:17:23.104Z,23.10
2018-09-18T18:19:52.254Z,23.00
2018-09-18T18:22:20.780Z,23.00
2018-09-18T18:24:49.694Z,23.00
2018-09-18T18:27:18.212Z,23.00
2018-09-18T18:29:47.442Z,23.00
2018-09-18T18:32:16.266Z,23.00
2018-09-18T18:34:44.814Z,23.00
2018-09-18T18:37:13.344Z,23.00
2018-09-18T18:39:41.809Z,23.10
2018-09-18T18:42:10.481Z,23.10
2018-09-18T18:44:39.186Z,23.10
2018-09-18T18:47:07.774Z,23.20
2018-09-18T18:49:39.201Z,23.20
2018-09-18T18:52:08.060Z,23.10
2018-09-18T18:54:36.771Z,23.10
2018-09-18T18:57:07.391Z,23.10
2018-09-18T18:59:36.940Z,23.10
2018-09-18T19:02:06.531Z,23.10
2018-09-18T19:04:35.366Z,23.10
2018-09-18T19:07:04.620Z,23.10
2018-09-18T19:09:33.616Z,23.10
2018-09-18T19:12:02.195Z,23.10
2018-09-18T19:14:30.686Z,23.10
2018-09-18T19:16:59.171Z,23.00
2018-09-18T19:19:27.983Z,22.90
2018-09-18T19:21:57.270Z,22.90
2018-09-18T19:24:27.397Z,22.90
2018-09-18T19:26:55.846Z,22.80
2018-09-18T19:29:24.346Z,22.80
2018-09-18T19:31:53.647Z,22.80
2018-09-18T19:34:22.183Z,22.90
2018-09-18T19:36:50.718Z,22.90
2018-09-18T19:39:19.264Z,22.90
2018-09-18T19:41:48.024Z,22.90
2018-09-18T19:44:17.003Z,22.90
2018-09-18T19:46:45.549Z,22.90
2018-09-18T19:49:14.000Z,22.90
2018-09-18T19:51:42.635Z,22.80
2018-09-18T19:54:11.784Z,22.80
2018-09-18T19:56:41.292Z,22.80
2018-09-18T19:59:09.940Z,22.80
2018-09-18T20:01:38.635Z,22.70
2018-09-18T20:04:07.703Z,22.80
2018-09-18T20:06:36.550Z,22.80
2018-09-18T20:09:08.799Z,22.80
2018-09-18T20:11:37.425Z,22.70
2018-09-18T20:14:07.727Z,22.70
2018-09-18T20:16:36.377Z,22.70
2018-09-18T20:19:05.217Z,22.70
2018-09-18T20:21:34.006Z,22.70
2018-09-18T20:24:02.997Z,22.70
2018-09-18T20:26:31.590Z,22.70
2018-09-18T20:29:00.472Z,22.70
2018-09-18T20:31:29.256Z,22.70
2018-09-18T20:33:57.933Z,22.70
2018-09-18T20:36:26.535Z,22.60
2018-09-18T20:38:55.039Z,22.60
2018-09-18T20:41:23.607Z,22.60
2018-09-18T20:43:52.399Z,22.60
2018-09-18T20:46:21.214Z,22.60
2018-09-18T20:48:50.387Z,22.60
2018-09-18T20:51:19.522Z,21.50
2018-09-18T20:53:48.397Z,22.60
2018-09-18T20:56:17.056Z,22.60
2018-09-18T20:58:45.629Z,22.60
2018-09-18T21:01:14.624Z,22.70
2018-09-18T21:03:43.613Z,22.70
2018-09-18T21:06:12.674Z,22.70
2018-09-18T21:08:41.515Z,22.70
2018-09-18T21:11:10.367Z,22.60
2018-09-18T21:13:39.193Z,22.50
2018-09-18T21:16:07.980Z,22.50
2018-09-18T21:18:37.070Z,22.40
2018-09-18T21:21:19.934Z,22.40
2018-09-18T21:23:48.574Z,22.40
2018-09-18T21:26:18.396Z,22.30
2018-09-18T21:28:47.475Z,22.40
2018-09-18T21:31:17.785Z,22.40
2018-09-18T21:33:46.483Z,22.40
2018-09-18T21:36:15.356Z,22.40
2018-09-18T21:38:44.283Z,22.40
2018-09-18T21:41:13.223Z,22.30
2018-09-18T21:43:42.082Z,22.30
2018-09-18T21:46:10.968Z,22.30
2018-09-18T21:48:39.944Z,22.40
2018-09-18T21:51:08.754Z,22.30
2018-09-18T21:53:38.220Z,22.30
2018-09-18T21:56:07.841Z,22.30
2018-09-18T21:58:36.451Z,22.30
2018-09-18T22:01:07.379Z,22.30
2018-09-18T22:03:36.424Z,22.30
2018-09-18T22:06:07.300Z,22.30
2018-09-18T22:08:36.519Z,22.20
2018-09-18T22:11:05.299Z,22.20
2018-09-18T22:13:34.243Z,22.20
2018-09-18T22:16:04.104Z,22.20
2018-09-18T22:18:33.320Z,22.20
2018-09-18T22:21:02.703Z,22.20
2018-09-18T22:23:33.239Z,22.10
2018-09-18T22:26:03.601Z,22.10
2018-09-18T22:28:32.463Z,22.10
2018-09-18T22:31:02.333Z,22.10
2018-09-18T22:33:31.786Z,22.10
2018-09-18T22:36:01.916Z,22.10
2018-09-18T22:38:31.845Z,22.10
2018-09-18T22:41:01.091Z,22.00
2018-09-18T22:43:30.000Z,22.10
2018-09-18T22:45:59.099Z,22.10
2018-09-18T22:48:27.797Z,22.00
2018-09-18T22:50:56.771Z,22.10
2018-09-18T22:53:26.085Z,22.10
2018-09-18T22:55:55.193Z,22.00
2018-09-18T22:58:23.802Z,22.00
2018-09-18T23:00:53.131Z,22.00
2018-09-18T23:03:21.947Z,21.90
2018-09-18T23:05:50.909Z,21.90
2018-09-18T23:08:19.720Z,22.00
2018-09-18T23:10:48.267Z,21.90
2018-09-18T23:13:17.111Z,21.90
2018-09-18T23:15:46.295Z,21.90
2018-09-18T23:18:15.100Z,21.80
2018-09-18T23:20:43.904Z,21.80
2018-09-18T23:23:13.904Z,21.80
2018-09-18T23:25:43.308Z,21.70
2018-09-18T23:28:11.979Z,21.70
2018-09-18T23:30:41.605Z,21.60
2018-09-18T23:33:10.227Z,21.60
2018-09-18T23:35:39.067Z,21.60
2018-09-18T23:38:07.610Z,21.60
2018-09-18T23:40:36.209Z,21.50
2018-09-18T23:43:05.048Z,21.50
2018-09-18T23:45:34.836Z,21.50
2018-09-18T23:48:03.625Z,21.50
2018-09-18T23:50:33.259Z,21.50
2018-09-18T23:53:01.879Z,21.40
2018-09-18T23:55:31.502Z,21.40
2018-09-18T23:58:00.229Z,21.40
